Wolke Sonne

Wetter Roßtal

Gehe zu: Ammerndorf

Tageswerte vom Freitag, 11.03.2022

Optionen

Tag:
Erweitert:

Alle Werte vom Freitag, 11.03.2022

Einen Moment bitte, die Daten werden aufbereitet...

UhrzeitTemperaturFeuchteLuftdruckNiederschlagEvapotranspirationNiederschlag?WindWindböenRegenrateWindrichtungHelligkeitSolarstrahlungUV-IndexSonne?Feinstaub 10µmFeinstaub 2,5µmUhrzeit
Diagramm IconDiagramm IconDiagramm IconDiagramm IconDiagramm IconDiagramm IconDiagramm IconDiagramm IconDiagramm IconDiagramm IconDiagramm IconDiagramm IconDiagramm IconDiagramm IconDiagramm IconDiagramm Icon
00:002,2 °C 66 % 1026,2 hPa 0,0 mm 0,0 mm nein 9,7 km/h 17,7 km/h 0,0 mm/h OSO 0,000 klux 0,0 W/qm 0,0 nein 17,17 µg/m³ 11,82 µg/m³ 00:00
00:052,2 °C 67 % 1026,3 hPa 0,0 mm 0,0 mm nein 9,7 km/h 22,5 km/h 0,0 mm/h O 0,000 klux 0,0 W/qm 0,0 nein 17,07 µg/m³ 11,99 µg/m³ 00:05
00:102,2 °C 67 % 1026,2 hPa 0,0 mm 0,0 mm nein 11,3 km/h 24,1 km/h 0,0 mm/h O 0,000 klux 0,0 W/qm 0,0 nein 15,28 µg/m³ 11,29 µg/m³ 00:10
00:152,2 °C 67 % 1026,2 hPa 0,0 mm 0,0 mm nein 9,7 km/h 16,1 km/h 0,0 mm/h O 0,000 klux 0,0 W/qm 0,0 nein 15,62 µg/m³ 10,97 µg/m³ 00:15
00:202,8 °C 67 % 1026,0 hPa 0,0 mm 0,0 mm nein 6,4 km/h 14,5 km/h 0,0 mm/h OSO 0,000 klux 0,0 W/qm 0,0 nein 18,16 µg/m³ 11,49 µg/m³ 00:20
00:252,8 °C 67 % 1026,0 hPa 0,0 mm 0,0 mm nein 6,4 km/h 14,5 km/h 0,0 mm/h OSO 0,000 klux 0,0 W/qm 0,0 nein 17,16 µg/m³ 11,87 µg/m³ 00:25
00:302,2 °C 67 % 1026,3 hPa 0,0 mm 0,0 mm nein 8,0 km/h 12,9 km/h 0,0 mm/h OSO 0,000 klux 0,0 W/qm 0,0 nein 15,73 µg/m³ 11,55 µg/m³ 00:30
00:352,2 °C 67 % 1026,2 hPa 0,0 mm 0,0 mm nein 6,4 km/h 17,7 km/h 0,0 mm/h OSO 0,000 klux 0,0 W/qm 0,0 nein 23,80 µg/m³ 13,34 µg/m³ 00:35
00:402,2 °C 67 % 1026,3 hPa 0,0 mm 0,0 mm nein 6,4 km/h 12,9 km/h 0,0 mm/h OSO 0,000 klux 0,0 W/qm 0,0 nein 19,66 µg/m³ 12,39 µg/m³ 00:40
00:452,2 °C 67 % 1026,3 hPa 0,0 mm 0,0 mm nein 4,8 km/h 12,9 km/h 0,0 mm/h OSO 0,000 klux 0,0 W/qm 0,0 nein 16,99 µg/m³ 11,60 µg/m³ 00:45
00:502,2 °C 67 % 1026,2 hPa 0,0 mm 0,0 mm nein 4,8 km/h 11,3 km/h 0,0 mm/h OSO 0,000 klux 0,0 W/qm 0,0 nein 19,70 µg/m³ 13,34 µg/m³ 00:50
00:552,2 °C 68 % 1026,3 hPa 0,0 mm 0,0 mm nein 4,8 km/h 12,9 km/h 0,0 mm/h OSO 0,000 klux 0,0 W/qm 0,0 nein 18,22 µg/m³ 13,61 µg/m³ 00:55
01:002,2 °C 68 % 1026,2 hPa 0,0 mm 0,0 mm nein 3,2 km/h 8,0 km/h 0,0 mm/h OSO 0,000 klux 0,0 W/qm 0,0 nein 18,55 µg/m³ 12,82 µg/m³ 01:00
01:052,2 °C 68 % 1026,2 hPa 0,0 mm 0,0 mm nein 4,8 km/h 8,0 km/h 0,0 mm/h OSO 0,000 klux 0,0 W/qm 0,0 nein 18,79 µg/m³ 12,74 µg/m³ 01:05
01:101,7 °C 69 % 1026,2 hPa 0,0 mm 0,0 mm nein 4,8 km/h 11,3 km/h 0,0 mm/h OSO 0,000 klux 0,0 W/qm 0,0 nein 20,38 µg/m³ 12,57 µg/m³ 01:10
01:151,7 °C 69 % 1026,2 hPa 0,0 mm 0,0 mm nein 6,4 km/h 12,9 km/h 0,0 mm/h OSO 0,000 klux 0,0 W/qm 0,0 nein 18,65 µg/m³ 13,30 µg/m³ 01:15
01:201,7 °C 69 % 1026,1 hPa 0,0 mm 0,0 mm nein 8,0 km/h 17,7 km/h 0,0 mm/h OSO 0,000 klux 0,0 W/qm 0,0 nein 18,60 µg/m³ 12,97 µg/m³ 01:20
01:251,7 °C 69 % 1026,1 hPa 0,0 mm 0,0 mm nein 9,7 km/h 19,3 km/h 0,0 mm/h OSO 0,000 klux 0,0 W/qm 0,0 nein 22,10 µg/m³ 13,82 µg/m³ 01:25
01:301,7 °C 69 % 1026,1 hPa 0,0 mm 0,0 mm nein 11,3 km/h 25,7 km/h 0,0 mm/h OSO 0,000 klux 0,0 W/qm 0,0 nein 19,03 µg/m³ 12,48 µg/m³ 01:30
01:351,7 °C 68 % 1026,1 hPa 0,0 mm 0,0 mm nein 11,3 km/h 20,9 km/h 0,0 mm/h OSO 0,000 klux 0,0 W/qm 0,0 nein 19,48 µg/m³ 12,64 µg/m³ 01:35
01:401,7 °C 68 % 1026,1 hPa 0,0 mm 0,0 mm nein 9,7 km/h 20,9 km/h 0,0 mm/h OSO 0,000 klux 0,0 W/qm 0,0 nein 17,76 µg/m³ 12,45 µg/m³ 01:40
01:451,7 °C 67 % 1025,9 hPa 0,0 mm 0,0 mm nein 11,3 km/h 22,5 km/h 0,0 mm/h OSO 0,000 klux 0,0 W/qm 0,0 nein 18,39 µg/m³ 13,02 µg/m³ 01:45
01:501,7 °C 66 % 1025,9 hPa 0,0 mm 0,0 mm nein 11,3 km/h 19,3 km/h 0,0 mm/h OSO 0,000 klux 0,0 W/qm 0,0 nein 21,96 µg/m³ 12,18 µg/m³ 01:50
01:551,7 °C 66 % 1025,9 hPa 0,0 mm 0,0 mm nein 11,3 km/h 25,7 km/h 0,0 mm/h OSO 0,000 klux 0,0 W/qm 0,0 nein 17,31 µg/m³ 11,44 µg/m³ 01:55
UhrzeitTemperaturFeuchteLuftdruckNiederschlagEvapotranspirationNiederschlag?WindWindböenRegenrateWindrichtungHelligkeitSolarstrahlungUV-IndexSonne?Feinstaub 10µmFeinstaub 2,5µmUhrzeit
02:001,7 °C 66 % 1025,8 hPa 0,0 mm 0,0 mm nein 9,7 km/h 17,7 km/h 0,0 mm/h OSO 0,000 klux 0,0 W/qm 0,0 nein 25,28 µg/m³ 12,46 µg/m³ 02:00
02:051,7 °C 65 % 1025,8 hPa 0,0 mm 0,0 mm nein 11,3 km/h 19,3 km/h 0,0 mm/h OSO 0,000 klux 0,0 W/qm 0,0 nein 18,05 µg/m³ 12,06 µg/m³ 02:05
02:101,7 °C 65 % 1025,7 hPa 0,0 mm 0,0 mm nein 11,3 km/h 19,3 km/h 0,0 mm/h OSO 0,000 klux 0,0 W/qm 0,0 nein 18,78 µg/m³ 12,79 µg/m³ 02:10
02:151,1 °C 65 % 1025,8 hPa 0,0 mm 0,0 mm nein 9,7 km/h 22,5 km/h 0,0 mm/h OSO 0,000 klux 0,0 W/qm 0,0 nein 19,63 µg/m³ 12,79 µg/m³ 02:15
02:201,1 °C 65 % 1025,8 hPa 0,0 mm 0,0 mm nein 9,7 km/h 17,7 km/h 0,0 mm/h OSO 0,000 klux 0,0 W/qm 0,0 nein 18,61 µg/m³ 12,42 µg/m³ 02:20
02:251,1 °C 65 % 1025,9 hPa 0,0 mm 0,0 mm nein 6,4 km/h 16,1 km/h 0,0 mm/h OSO 0,000 klux 0,0 W/qm 0,0 nein 20,89 µg/m³ 12,69 µg/m³ 02:25
02:301,1 °C 66 % 1025,9 hPa 0,0 mm 0,0 mm nein 4,8 km/h 12,9 km/h 0,0 mm/h OSO 0,000 klux 0,0 W/qm 0,0 nein 23,54 µg/m³ 19,00 µg/m³ 02:30
02:351,1 °C 66 % 1025,8 hPa 0,0 mm 0,0 mm nein 6,4 km/h 12,9 km/h 0,0 mm/h OSO 0,000 klux 0,0 W/qm 0,0 nein 18,57 µg/m³ 12,54 µg/m³ 02:35
02:401,1 °C 67 % 1025,7 hPa 0,0 mm 0,0 mm nein 4,8 km/h 9,7 km/h 0,0 mm/h OSO 0,000 klux 0,0 W/qm 0,0 nein 18,17 µg/m³ 12,22 µg/m³ 02:40
02:451,1 °C 67 % 1025,7 hPa 0,0 mm 0,0 mm nein 4,8 km/h 11,3 km/h 0,0 mm/h OSO 0,000 klux 0,0 W/qm 0,0 nein 19,81 µg/m³ 12,76 µg/m³ 02:45
02:500,6 °C 67 % 1025,7 hPa 0,0 mm 0,0 mm nein 4,8 km/h 16,1 km/h 0,0 mm/h OSO 0,000 klux 0,0 W/qm 0,0 nein 17,07 µg/m³ 11,67 µg/m³ 02:50
02:550,6 °C 68 % 1025,6 hPa 0,0 mm 0,0 mm nein 6,4 km/h 14,5 km/h 0,0 mm/h OSO 0,000 klux 0,0 W/qm 0,0 nein 19,53 µg/m³ 12,34 µg/m³ 02:55
03:000,6 °C 68 % 1025,6 hPa 0,0 mm 0,0 mm nein 6,4 km/h 12,9 km/h 0,0 mm/h OSO 0,000 klux 0,0 W/qm 0,0 nein 18,67 µg/m³ 12,00 µg/m³ 03:00
03:050,6 °C 68 % 1025,6 hPa 0,0 mm 0,0 mm nein 4,8 km/h 9,7 km/h 0,0 mm/h OSO 0,000 klux 0,0 W/qm 0,0 nein 16,42 µg/m³ 11,40 µg/m³ 03:05
03:100,6 °C 68 % 1025,5 hPa 0,0 mm 0,0 mm nein 1,6 km/h 6,4 km/h 0,0 mm/h OSO 0,000 klux 0,0 W/qm 0,0 nein 19,80 µg/m³ 11,79 µg/m³ 03:10
03:150,0 °C 68 % 1025,6 hPa 0,0 mm 0,0 mm nein 3,2 km/h 6,4 km/h 0,0 mm/h OSO 0,000 klux 0,0 W/qm 0,0 nein 19,41 µg/m³ 11,50 µg/m³ 03:15
03:200,0 °C 68 % 1025,6 hPa 0,0 mm 0,0 mm nein 1,6 km/h 6,4 km/h 0,0 mm/h OSO 0,000 klux 0,0 W/qm 0,0 nein 17,40 µg/m³ 11,27 µg/m³ 03:20
03:250,0 °C 68 % 1025,6 hPa 0,0 mm 0,0 mm nein 1,6 km/h 6,4 km/h 0,0 mm/h OSO 0,000 klux 0,0 W/qm 0,0 nein 16,51 µg/m³ 10,44 µg/m³ 03:25
03:300,0 °C 68 % 1025,6 hPa 0,0 mm 0,0 mm nein 1,6 km/h 4,8 km/h 0,0 mm/h OSO 0,000 klux 0,0 W/qm 0,0 nein 16,76 µg/m³ 10,37 µg/m³ 03:30
03:350,0 °C 68 % 1025,5 hPa 0,0 mm 0,0 mm nein 1,6 km/h 6,4 km/h 0,0 mm/h OSO 0,000 klux 0,0 W/qm 0,0 nein 15,75 µg/m³ 10,26 µg/m³ 03:35
03:40-0,6 °C 68 % 1025,7 hPa 0,0 mm 0,0 mm nein 3,2 km/h 8,0 km/h 0,0 mm/h O 0,000 klux 0,0 W/qm 0,0 nein 17,10 µg/m³ 10,87 µg/m³ 03:40
03:45-0,6 °C 68 % 1025,5 hPa 0,0 mm 0,0 mm nein 3,2 km/h 8,0 km/h 0,0 mm/h OSO 0,000 klux 0,0 W/qm 0,0 nein 14,55 µg/m³ 9,41 µg/m³ 03:45
03:50-0,6 °C 68 % 1025,5 hPa 0,0 mm 0,0 mm nein 4,8 km/h 14,5 km/h 0,0 mm/h OSO 0,000 klux 0,0 W/qm 0,0 nein 13,30 µg/m³ 8,54 µg/m³ 03:50
03:55-0,6 °C 67 % 1025,4 hPa 0,0 mm 0,0 mm nein 8,0 km/h 17,7 km/h 0,0 mm/h OSO 0,000 klux 0,0 W/qm 0,0 nein 13,32 µg/m³ 8,36 µg/m³ 03:55
UhrzeitTemperaturFeuchteLuftdruckNiederschlagEvapotranspirationNiederschlag?WindWindböenRegenrateWindrichtungHelligkeitSolarstrahlungUV-IndexSonne?Feinstaub 10µmFeinstaub 2,5µmUhrzeit
04:00-0,6 °C 65 % 1025,4 hPa 0,0 mm 0,0 mm nein 9,7 km/h 20,9 km/h 0,0 mm/h OSO 0,000 klux 0,0 W/qm 0,0 nein 12,93 µg/m³ 8,66 µg/m³ 04:00
04:05-0,6 °C 64 % 1025,3 hPa 0,0 mm 0,0 mm nein 9,7 km/h 19,3 km/h 0,0 mm/h OSO 0,000 klux 0,0 W/qm 0,0 nein 11,80 µg/m³ 8,14 µg/m³ 04:05
04:10-0,6 °C 64 % 1025,3 hPa 0,0 mm 0,0 mm nein 8,0 km/h 16,1 km/h 0,0 mm/h OSO 0,000 klux 0,0 W/qm 0,0 nein 12,83 µg/m³ 8,33 µg/m³ 04:10
04:15-0,6 °C 63 % 1025,3 hPa 0,0 mm 0,0 mm nein 8,0 km/h 17,7 km/h 0,0 mm/h OSO 0,000 klux 0,0 W/qm 0,0 nein 12,68 µg/m³ 7,81 µg/m³ 04:15
04:20-0,6 °C 63 % 1025,2 hPa 0,0 mm 0,0 mm nein 6,4 km/h 14,5 km/h 0,0 mm/h OSO 0,000 klux 0,0 W/qm 0,0 nein 12,24 µg/m³ 8,48 µg/m³ 04:20
04:25-0,6 °C 63 % 1025,2 hPa 0,0 mm 0,0 mm nein 9,7 km/h 17,7 km/h 0,0 mm/h O 0,000 klux 0,0 W/qm 0,0 nein 13,21 µg/m³ 8,52 µg/m³ 04:25
04:30-0,6 °C 63 % 1025,1 hPa 0,0 mm 0,0 mm nein 6,4 km/h 16,1 km/h 0,0 mm/h OSO 0,000 klux 0,0 W/qm 0,0 nein 13,62 µg/m³ 9,03 µg/m³ 04:30
04:35-0,6 °C 63 % 1025,1 hPa 0,0 mm 0,0 mm nein 9,7 km/h 20,9 km/h 0,0 mm/h O 0,000 klux 0,0 W/qm 0,0 nein 15,08 µg/m³ 9,34 µg/m³ 04:35
04:40-0,6 °C 63 % 1025,0 hPa 0,0 mm 0,0 mm nein 8,0 km/h 16,1 km/h 0,0 mm/h O 0,000 klux 0,0 W/qm 0,0 nein 14,98 µg/m³ 8,69 µg/m³ 04:40
04:45-0,6 °C 64 % 1025,0 hPa 0,0 mm 0,0 mm nein 6,4 km/h 14,5 km/h 0,0 mm/h O 0,000 klux 0,0 W/qm 0,0 nein 14,47 µg/m³ 9,73 µg/m³ 04:45
04:50-0,6 °C 64 % 1025,0 hPa 0,0 mm 0,0 mm nein 6,4 km/h 14,5 km/h 0,0 mm/h OSO 0,000 klux 0,0 W/qm 0,0 nein 14,73 µg/m³ 9,64 µg/m³ 04:50
04:55-0,6 °C 64 % 1024,9 hPa 0,0 mm 0,0 mm nein 4,8 km/h 12,9 km/h 0,0 mm/h OSO 0,000 klux 0,0 W/qm 0,0 nein 16,12 µg/m³ 10,85 µg/m³ 04:55
05:00-0,6 °C 64 % 1025,0 hPa 0,0 mm 0,0 mm nein 4,8 km/h 9,7 km/h 0,0 mm/h OSO 0,000 klux 0,0 W/qm 0,0 nein 15,69 µg/m³ 9,64 µg/m³ 05:00
05:05-1,1 °C 65 % 1025,1 hPa 0,0 mm 0,0 mm nein 4,8 km/h 11,3 km/h 0,0 mm/h OSO 0,000 klux 0,0 W/qm 0,0 nein 16,59 µg/m³ 10,12 µg/m³ 05:05
05:10-1,1 °C 65 % 1025,0 hPa 0,0 mm 0,0 mm nein 4,8 km/h 11,3 km/h 0,0 mm/h OSO 0,000 klux 0,0 W/qm 0,0 nein 14,46 µg/m³ 9,27 µg/m³ 05:10
05:15-1,1 °C 65 % 1024,9 hPa 0,0 mm 0,0 mm nein 4,8 km/h 11,3 km/h 0,0 mm/h OSO 0,000 klux 0,0 W/qm 0,0 nein 16,00 µg/m³ 9,51 µg/m³ 05:15
05:20-1,1 °C 65 % 1024,9 hPa 0,0 mm 0,0 mm nein 6,4 km/h 12,9 km/h 0,0 mm/h OSO 0,000 klux 0,0 W/qm 0,0 nein 14,02 µg/m³ 9,26 µg/m³ 05:20
05:25-1,1 °C 65 % 1024,9 hPa 0,0 mm 0,0 mm nein 6,4 km/h 11,3 km/h 0,0 mm/h OSO 0,000 klux 0,0 W/qm 0,0 nein 13,37 µg/m³ 8,85 µg/m³ 05:25
05:30-1,1 °C 65 % 1024,8 hPa 0,0 mm 0,0 mm nein 4,8 km/h 11,3 km/h 0,0 mm/h OSO 0,000 klux 0,0 W/qm 0,0 nein 13,12 µg/m³ 8,64 µg/m³ 05:30
05:35-1,1 °C 65 % 1024,9 hPa 0,0 mm 0,0 mm nein 3,2 km/h 8,0 km/h 0,0 mm/h OSO 0,000 klux 0,0 W/qm 0,0 nein 15,02 µg/m³ 9,99 µg/m³ 05:35
05:40-1,7 °C 66 % 1025,0 hPa 0,0 mm 0,0 mm nein 3,2 km/h 6,4 km/h 0,0 mm/h OSO 0,000 klux 0,0 W/qm 0,0 nein 14,22 µg/m³ 8,88 µg/m³ 05:40
05:45-1,7 °C 66 % 1024,9 hPa 0,0 mm 0,0 mm nein 1,6 km/h 4,8 km/h 0,0 mm/h OSO 0,000 klux 0,0 W/qm 0,0 nein 12,12 µg/m³ 8,18 µg/m³ 05:45
05:50-1,7 °C 66 % 1024,9 hPa 0,0 mm 0,0 mm nein 3,2 km/h 6,4 km/h 0,0 mm/h OSO 0,000 klux 0,0 W/qm 0,0 nein 13,86 µg/m³ 8,75 µg/m³ 05:50
05:55-1,7 °C 66 % 1024,9 hPa 0,0 mm 0,0 mm nein 1,6 km/h 4,8 km/h 0,0 mm/h OSO 0,000 klux 0,0 W/qm 0,0 nein 13,71 µg/m³ 9,19 µg/m³ 05:55
UhrzeitTemperaturFeuchteLuftdruckNiederschlagEvapotranspirationNiederschlag?WindWindböenRegenrateWindrichtungHelligkeitSolarstrahlungUV-IndexSonne?Feinstaub 10µmFeinstaub 2,5µmUhrzeit
06:00-1,7 °C 66 % 1024,9 hPa 0,0 mm 0,0 mm nein 1,6 km/h 3,2 km/h 0,0 mm/h OSO 0,000 klux 0,0 W/qm 0,0 nein 12,67 µg/m³ 7,95 µg/m³ 06:00
06:05-1,7 °C 66 % 1024,7 hPa 0,0 mm 0,0 mm nein 1,6 km/h 6,4 km/h 0,0 mm/h OSO 0,000 klux 0,0 W/qm 0,0 nein 14,12 µg/m³ 8,97 µg/m³ 06:05
06:10-1,7 °C 66 % 1024,7 hPa 0,0 mm 0,0 mm nein 3,2 km/h 8,0 km/h 0,0 mm/h O 0,000 klux 0,0 W/qm 0,0 nein 13,79 µg/m³ 8,58 µg/m³ 06:10
06:15-2,2 °C 67 % 1024,8 hPa 0,0 mm 0,0 mm nein 4,8 km/h 9,7 km/h 0,0 mm/h O 0,000 klux 0,0 W/qm 0,0 nein 13,98 µg/m³ 8,69 µg/m³ 06:15
06:20-2,2 °C 67 % 1024,7 hPa 0,0 mm 0,0 mm nein 4,8 km/h 9,7 km/h 0,0 mm/h O 0,000 klux 0,0 W/qm 0,0 nein 15,54 µg/m³ 8,02 µg/m³ 06:20
06:25-2,2 °C 67 % 1024,7 hPa 0,0 mm 0,0 mm nein 6,4 km/h 9,7 km/h 0,0 mm/h O 0,000 klux 0,0 W/qm 0,0 nein 13,36 µg/m³ 8,73 µg/m³ 06:25
06:30-2,2 °C 67 % 1024,6 hPa 0,0 mm 0,0 mm nein 3,2 km/h 8,0 km/h 0,0 mm/h OSO 0,000 klux 0,0 W/qm 0,0 nein 12,57 µg/m³ 7,89 µg/m³ 06:30
06:35-2,2 °C 67 % 1024,7 hPa 0,0 mm 0,0 mm nein 4,8 km/h 8,0 km/h 0,0 mm/h O 0,000 klux 0,0 W/qm 0,0 nein 12,61 µg/m³ 7,98 µg/m³ 06:35
06:40-2,2 °C 67 % 1024,8 hPa 0,0 mm 0,0 mm nein 3,2 km/h 8,0 km/h 0,0 mm/h OSO 0,000 klux 5,0 W/qm 0,0 nein 13,12 µg/m³ 7,60 µg/m³ 06:40
06:45-2,2 °C 67 % 1024,8 hPa 0,0 mm 0,0 mm nein 3,2 km/h 8,0 km/h 0,0 mm/h OSO 0,000 klux 8,0 W/qm 0,0 nein 13,72 µg/m³ 7,75 µg/m³ 06:45
06:50-2,2 °C 67 % 1024,9 hPa 0,0 mm 0,0 mm nein 1,6 km/h 4,8 km/h 0,0 mm/h O 0,000 klux 11,0 W/qm 0,0 nein 11,87 µg/m³ 7,84 µg/m³ 06:50
06:55-2,2 °C 67 % 1024,9 hPa 0,0 mm 0,0 mm nein 1,6 km/h 4,8 km/h 0,0 mm/h O 0,000 klux 12,0 W/qm 0,0 nein 13,02 µg/m³ 8,01 µg/m³ 06:55
07:00-2,2 °C 67 % 1024,9 hPa 0,0 mm 0,0 mm nein 3,2 km/h 6,4 km/h 0,0 mm/h OSO 0,000 klux 16,0 W/qm 0,0 nein 9,19 µg/m³ 7,09 µg/m³ 07:00
07:05-2,2 °C 66 % 1024,9 hPa 0,0 mm 0,0 mm nein 3,2 km/h 6,4 km/h 0,0 mm/h OSO 0,000 klux 20,0 W/qm 0,0 nein 13,37 µg/m³ 8,37 µg/m³ 07:05
07:10-2,2 °C 66 % 1024,8 hPa 0,0 mm 0,0 mm nein 3,2 km/h 4,8 km/h 0,0 mm/h O 0,000 klux 28,0 W/qm 0,0 nein 14,50 µg/m³ 10,09 µg/m³ 07:10
07:15-2,2 °C 66 % 1024,8 hPa 0,0 mm 0,0 mm nein 3,2 km/h 6,4 km/h 0,0 mm/h OSO 0,000 klux 38,0 W/qm 0,0 nein 11,46 µg/m³ 7,65 µg/m³ 07:15
07:20-2,2 °C 67 % 1024,9 hPa 0,0 mm 0,0 mm nein 3,2 km/h 4,8 km/h 0,0 mm/h OSO 0,000 klux 50,0 W/qm 0,0 nein 12,25 µg/m³ 8,06 µg/m³ 07:20
07:25-2,2 °C 66 % 1024,9 hPa 0,0 mm 0,0 mm nein 3,2 km/h 4,8 km/h 0,0 mm/h OSO 0,000 klux 63,0 W/qm 0,0 nein 11,21 µg/m³ 8,07 µg/m³ 07:25
07:30-2,2 °C 67 % 1024,9 hPa 0,0 mm 0,0 mm nein 1,6 km/h 4,8 km/h 0,0 mm/h OSO 0,000 klux 75,0 W/qm 0,0 nein 12,01 µg/m³ 8,73 µg/m³ 07:30
07:35-2,2 °C 67 % 1024,9 hPa 0,0 mm 0,0 mm nein 1,6 km/h 6,4 km/h 0,0 mm/h OSO 0,000 klux 90,0 W/qm 0,0 nein 10,06 µg/m³ 6,83 µg/m³ 07:35
07:40-2,2 °C 67 % 1024,9 hPa 0,0 mm 0,0 mm nein 1,6 km/h 3,2 km/h 0,0 mm/h OSO 0,000 klux 104,0 W/qm 0,0 nein 10,81 µg/m³ 7,42 µg/m³ 07:40
07:45-1,7 °C 67 % 1024,9 hPa 0,0 mm 0,0 mm nein 1,6 km/h 4,8 km/h 0,0 mm/h OSO 0,000 klux 117,0 W/qm 0,0 nein 9,85 µg/m³ 7,24 µg/m³ 07:45
07:50-1,7 °C 66 % 1024,8 hPa 0,0 mm 0,0 mm nein 3,2 km/h 6,4 km/h 0,0 mm/h O 0,000 klux 134,0 W/qm 0,0 nein 8,48 µg/m³ 6,82 µg/m³ 07:50
07:55-1,7 °C 65 % 1024,8 hPa 0,0 mm 0,0 mm nein 6,4 km/h 14,5 km/h 0,0 mm/h O 0,000 klux 153,0 W/qm 0,0 nein 9,01 µg/m³ 7,40 µg/m³ 07:55
UhrzeitTemperaturFeuchteLuftdruckNiederschlagEvapotranspirationNiederschlag?WindWindböenRegenrateWindrichtungHelligkeitSolarstrahlungUV-IndexSonne?Feinstaub 10µmFeinstaub 2,5µmUhrzeit
08:00-1,1 °C 63 % 1024,7 hPa 0,0 mm 0,0 mm nein 6,4 km/h 11,3 km/h 0,0 mm/h O 0,000 klux 174,0 W/qm 0,0 nein 9,91 µg/m³ 6,78 µg/m³ 08:00
08:05-0,6 °C 61 % 1024,6 hPa 0,0 mm 0,0 mm nein 4,8 km/h 9,7 km/h 0,0 mm/h O 0,000 klux 192,0 W/qm 0,0 nein 8,99 µg/m³ 7,02 µg/m³ 08:05
08:10-0,6 °C 61 % 1024,6 hPa 0,0 mm 0,0 mm nein 6,4 km/h 12,9 km/h 0,0 mm/h O 0,000 klux 211,0 W/qm 0,0 nein 11,38 µg/m³ 7,00 µg/m³ 08:10
08:150,0 °C 59 % 1024,4 hPa 0,0 mm 0,0 mm nein 8,0 km/h 19,3 km/h 0,0 mm/h O 0,000 klux 229,0 W/qm 0,0 nein 8,58 µg/m³ 6,49 µg/m³ 08:15
08:200,0 °C 58 % 1024,5 hPa 0,0 mm 0,0 mm nein 9,7 km/h 16,1 km/h 0,0 mm/h O 0,000 klux 247,0 W/qm 0,0 nein 11,11 µg/m³ 7,52 µg/m³ 08:20
08:250,0 °C 57 % 1024,5 hPa 0,0 mm 0,0 mm nein 9,7 km/h 17,7 km/h 0,0 mm/h O 0,000 klux 264,0 W/qm 0,0 nein 9,34 µg/m³ 6,75 µg/m³ 08:25
08:300,6 °C 56 % 1024,4 hPa 0,0 mm 0,0 mm nein 11,3 km/h 22,5 km/h 0,0 mm/h O 0,000 klux 269,0 W/qm 0,0 nein 8,00 µg/m³ 7,13 µg/m³ 08:30
08:350,6 °C 57 % 1024,3 hPa 0,0 mm 0,0 mm nein 6,4 km/h 16,1 km/h 0,0 mm/h O 0,000 klux 298,0 W/qm 0,0 nein 8,05 µg/m³ 6,42 µg/m³ 08:35
08:400,6 °C 56 % 1024,3 hPa 0,0 mm 0,0 mm nein 8,0 km/h 16,1 km/h 0,0 mm/h O 0,000 klux 313,0 W/qm 0,0 nein 8,57 µg/m³ 7,72 µg/m³ 08:40
08:451,1 °C 55 % 1024,3 hPa 0,0 mm 0,0 mm nein 11,3 km/h 19,3 km/h 0,0 mm/h O 0,000 klux 327,0 W/qm 0,0 nein 8,56 µg/m³ 7,42 µg/m³ 08:45
08:501,1 °C 54 % 1024,2 hPa 0,0 mm 0,0 mm nein 11,3 km/h 22,5 km/h 0,0 mm/h O 0,000 klux 340,0 W/qm 0,3 nein 9,18 µg/m³ 6,82 µg/m³ 08:50
08:551,7 °C 53 % 1024,0 hPa 0,0 mm 0,0 mm nein 11,3 km/h 22,5 km/h 0,0 mm/h O 0,000 klux 353,0 W/qm 0,5 nein 9,74 µg/m³ 7,77 µg/m³ 08:55
09:001,7 °C 52 % 1024,1 hPa 0,0 mm 0,1 mm nein 9,7 km/h 20,9 km/h 0,0 mm/h O 0,000 klux 366,0 W/qm 0,5 nein 9,99 µg/m³ 7,51 µg/m³ 09:00
09:051,7 °C 52 % 1024,0 hPa 0,0 mm 0,0 mm nein 11,3 km/h 17,7 km/h 0,0 mm/h O 0,000 klux 379,0 W/qm 0,6 nein 9,20 µg/m³ 7,01 µg/m³ 09:05
09:102,2 °C 51 % 1024,0 hPa 0,0 mm 0,0 mm nein 9,7 km/h 19,3 km/h 0,0 mm/h O 0,000 klux 391,0 W/qm 0,6 nein 9,03 µg/m³ 7,15 µg/m³ 09:10
09:152,2 °C 50 % 1023,8 hPa 0,0 mm 0,0 mm nein 11,3 km/h 24,1 km/h 0,0 mm/h O 0,000 klux 405,0 W/qm 0,7 nein 9,33 µg/m³ 6,60 µg/m³ 09:15
09:202,8 °C 49 % 1023,8 hPa 0,0 mm 0,0 mm nein 14,5 km/h 37,0 km/h 0,0 mm/h OSO 0,000 klux 416,0 W/qm 0,7 nein 8,86 µg/m³ 7,43 µg/m³ 09:20
09:252,8 °C 47 % 1023,7 hPa 0,0 mm 0,0 mm nein 16,1 km/h 38,6 km/h 0,0 mm/h O 0,000 klux 427,0 W/qm 0,7 nein 8,76 µg/m³ 7,00 µg/m³ 09:25
09:303,3 °C 46 % 1023,7 hPa 0,0 mm 0,0 mm nein 12,9 km/h 24,1 km/h 0,0 mm/h O 0,000 klux 437,0 W/qm 0,8 nein 8,95 µg/m³ 6,99 µg/m³ 09:30
09:353,3 °C 45 % 1023,6 hPa 0,0 mm 0,0 mm nein 14,5 km/h 32,2 km/h 0,0 mm/h O 0,000 klux 446,0 W/qm 0,8 nein 8,52 µg/m³ 6,78 µg/m³ 09:35
09:403,9 °C 45 % 1023,5 hPa 0,0 mm 0,0 mm nein 12,9 km/h 30,6 km/h 0,0 mm/h OSO 0,000 klux 453,0 W/qm 0,9 nein 9,92 µg/m³ 7,23 µg/m³ 09:40
09:453,9 °C 44 % 1023,4 hPa 0,0 mm 0,0 mm nein 16,1 km/h 30,6 km/h 0,0 mm/h O 0,000 klux 462,0 W/qm 0,9 nein 8,93 µg/m³ 6,90 µg/m³ 09:45
09:503,9 °C 43 % 1023,4 hPa 0,0 mm 0,0 mm nein 12,9 km/h 25,7 km/h 0,0 mm/h OSO 0,000 klux 476,0 W/qm 0,9 nein 8,47 µg/m³ 6,69 µg/m³ 09:50
09:554,4 °C 44 % 1023,3 hPa 0,0 mm 0,0 mm nein 16,1 km/h 29,0 km/h 0,0 mm/h OSO 0,000 klux 483,0 W/qm 1,0 nein 11,23 µg/m³ 7,73 µg/m³ 09:55
UhrzeitTemperaturFeuchteLuftdruckNiederschlagEvapotranspirationNiederschlag?WindWindböenRegenrateWindrichtungHelligkeitSolarstrahlungUV-IndexSonne?Feinstaub 10µmFeinstaub 2,5µmUhrzeit
10:004,4 °C 41 % 1023,3 hPa 0,0 mm 0,2 mm nein 17,7 km/h 35,4 km/h 0,0 mm/h O 0,000 klux 496,0 W/qm 1,0 nein 9,88 µg/m³ 7,09 µg/m³ 10:00
10:054,4 °C 42 % 1023,2 hPa 0,0 mm 0,0 mm nein 14,5 km/h 24,1 km/h 0,0 mm/h O 0,000 klux 493,0 W/qm 1,1 nein 8,06 µg/m³ 6,51 µg/m³ 10:05
10:104,4 °C 41 % 1023,2 hPa 0,0 mm 0,0 mm nein 17,7 km/h 30,6 km/h 0,0 mm/h O 0,000 klux 509,0 W/qm 1,1 nein 9,48 µg/m³ 7,37 µg/m³ 10:10
10:155,0 °C 40 % 1023,0 hPa 0,0 mm 0,0 mm nein 17,7 km/h 33,8 km/h 0,0 mm/h OSO 0,000 klux 524,0 W/qm 1,2 nein 8,90 µg/m³ 6,75 µg/m³ 10:15
10:205,0 °C 40 % 1023,0 hPa 0,0 mm 0,0 mm nein 14,5 km/h 33,8 km/h 0,0 mm/h O 0,000 klux 527,0 W/qm 1,2 nein 8,09 µg/m³ 6,32 µg/m³ 10:20
10:255,0 °C 40 % 1023,0 hPa 0,0 mm 0,0 mm nein 14,5 km/h 25,7 km/h 0,0 mm/h O 0,000 klux 539,0 W/qm 1,2 nein 8,50 µg/m³ 6,00 µg/m³ 10:25
10:305,6 °C 40 % 1022,8 hPa 0,0 mm 0,0 mm nein 17,7 km/h 32,2 km/h 0,0 mm/h O 0,000 klux 554,0 W/qm 1,3 nein 8,72 µg/m³ 6,38 µg/m³ 10:30
10:355,6 °C 39 % 1022,8 hPa 0,0 mm 0,0 mm nein 12,9 km/h 27,4 km/h 0,0 mm/h O 0,000 klux 566,0 W/qm 1,3 nein 8,35 µg/m³ 7,06 µg/m³ 10:35
10:406,1 °C 38 % 1022,6 hPa 0,0 mm 0,0 mm nein 14,5 km/h 35,4 km/h 0,0 mm/h OSO 0,000 klux 571,0 W/qm 1,3 nein 7,87 µg/m³ 6,90 µg/m³ 10:40
10:456,1 °C 37 % 1022,6 hPa 0,0 mm 0,0 mm nein 14,5 km/h 24,1 km/h 0,0 mm/h OSO 0,000 klux 574,0 W/qm 1,4 nein 7,90 µg/m³ 7,02 µg/m³ 10:45
10:506,1 °C 36 % 1022,7 hPa 0,0 mm 0,0 mm nein 14,5 km/h 35,4 km/h 0,0 mm/h OSO 0,000 klux 590,0 W/qm 1,4 nein 9,20 µg/m³ 6,31 µg/m³ 10:50
10:556,7 °C 35 % 1022,5 hPa 0,0 mm 0,0 mm nein 16,1 km/h 30,6 km/h 0,0 mm/h OSO 0,000 klux 600,0 W/qm 1,5 nein 7,61 µg/m³ 5,71 µg/m³ 10:55
11:006,7 °C 35 % 1022,5 hPa 0,0 mm 0,3 mm nein 16,1 km/h 30,6 km/h 0,0 mm/h OSO 0,000 klux 605,0 W/qm 1,5 nein 7,57 µg/m³ 6,78 µg/m³ 11:00
11:056,7 °C 35 % 1022,5 hPa 0,0 mm 0,0 mm nein 12,9 km/h 29,0 km/h 0,0 mm/h OSO 0,000 klux 611,0 W/qm 1,5 nein 9,84 µg/m³ 6,08 µg/m³ 11:05
11:106,7 °C 34 % 1022,5 hPa 0,0 mm 0,0 mm nein 14,5 km/h 32,2 km/h 0,0 mm/h SO 0,000 klux 620,0 W/qm 1,6 nein 8,24 µg/m³ 6,42 µg/m³ 11:10
11:156,7 °C 33 % 1022,4 hPa 0,0 mm 0,0 mm nein 16,1 km/h 32,2 km/h 0,0 mm/h OSO 0,000 klux 627,0 W/qm 1,6 nein 7,66 µg/m³ 6,60 µg/m³ 11:15
11:207,2 °C 33 % 1022,3 hPa 0,0 mm 0,0 mm nein 11,3 km/h 24,1 km/h 0,0 mm/h SO 0,000 klux 634,0 W/qm 1,6 nein 9,87 µg/m³ 7,19 µg/m³ 11:20
11:257,2 °C 33 % 1022,3 hPa 0,0 mm 0,0 mm nein 14,5 km/h 27,4 km/h 0,0 mm/h OSO 0,000 klux 638,0 W/qm 1,7 nein 8,94 µg/m³ 7,56 µg/m³ 11:25
11:307,2 °C 32 % 1022,3 hPa 0,0 mm 0,0 mm nein 16,1 km/h 30,6 km/h 0,0 mm/h SO 0,000 klux 646,0 W/qm 1,7 nein 6,65 µg/m³ 5,88 µg/m³ 11:30
11:357,8 °C 31 % 1022,2 hPa 0,0 mm 0,0 mm nein 16,1 km/h 32,2 km/h 0,0 mm/h OSO 0,000 klux 650,0 W/qm 1,7 nein 7,32 µg/m³ 6,35 µg/m³ 11:35
11:407,8 °C 32 % 1022,2 hPa 0,0 mm 0,0 mm nein 14,5 km/h 32,2 km/h 0,0 mm/h SO 0,000 klux 654,0 W/qm 1,7 nein 6,84 µg/m³ 5,04 µg/m³ 11:40
11:457,8 °C 32 % 1022,1 hPa 0,0 mm 0,0 mm nein 14,5 km/h 27,4 km/h 0,0 mm/h OSO 0,000 klux 658,0 W/qm 1,7 nein 6,94 µg/m³ 5,69 µg/m³ 11:45
11:508,3 °C 31 % 1021,9 hPa 0,0 mm 0,0 mm nein 16,1 km/h 30,6 km/h 0,0 mm/h SO 0,000 klux 663,0 W/qm 1,8 nein 9,37 µg/m³ 5,60 µg/m³ 11:50
11:558,3 °C 31 % 1022,1 hPa 0,0 mm 0,0 mm nein 12,9 km/h 25,7 km/h 0,0 mm/h OSO 0,000 klux 667,0 W/qm 1,8 nein 6,16 µg/m³ 5,51 µg/m³ 11:55
UhrzeitTemperaturFeuchteLuftdruckNiederschlagEvapotranspirationNiederschlag?WindWindböenRegenrateWindrichtungHelligkeitSolarstrahlungUV-IndexSonne?Feinstaub 10µmFeinstaub 2,5µmUhrzeit
12:008,3 °C 31 % 1021,9 hPa 0,0 mm 0,4 mm nein 11,3 km/h 22,5 km/h 0,0 mm/h O 0,000 klux 670,0 W/qm 1,8 nein 7,90 µg/m³ 4,74 µg/m³ 12:00
12:058,3 °C 31 % 1021,9 hPa 0,0 mm 0,0 mm nein 12,9 km/h 24,1 km/h 0,0 mm/h O 0,000 klux 672,0 W/qm 1,8 nein 8,63 µg/m³ 5,31 µg/m³ 12:05
12:108,9 °C 30 % 1021,8 hPa 0,0 mm 0,0 mm nein 11,3 km/h 25,7 km/h 0,0 mm/h ONO 0,000 klux 676,0 W/qm 1,8 nein 7,24 µg/m³ 5,13 µg/m³ 12:10
12:158,9 °C 29 % 1021,8 hPa 0,0 mm 0,0 mm nein 14,5 km/h 25,7 km/h 0,0 mm/h SO 0,000 klux 679,0 W/qm 1,8 nein 6,02 µg/m³ 5,41 µg/m³ 12:15
12:208,9 °C 27 % 1021,8 hPa 0,0 mm 0,0 mm nein 16,1 km/h 29,0 km/h 0,0 mm/h OSO 0,000 klux 679,0 W/qm 1,8 nein 6,12 µg/m³ 4,81 µg/m³ 12:20
12:258,9 °C 27 % 1021,7 hPa 0,0 mm 0,0 mm nein 12,9 km/h 24,1 km/h 0,0 mm/h O 0,000 klux 680,0 W/qm 1,8 nein 5,53 µg/m³ 4,95 µg/m³ 12:25
12:308,9 °C 28 % 1021,6 hPa 0,0 mm 0,0 mm nein 12,9 km/h 24,1 km/h 0,0 mm/h OSO 0,000 klux 680,0 W/qm 1,8 nein 6,20 µg/m³ 5,45 µg/m³ 12:30
12:358,9 °C 28 % 1021,5 hPa 0,0 mm 0,0 mm nein 14,5 km/h 32,2 km/h 0,0 mm/h O 0,000 klux 680,0 W/qm 1,8 nein 5,45 µg/m³ 4,96 µg/m³ 12:35
12:408,9 °C 27 % 1021,3 hPa 0,0 mm 0,0 mm nein 14,5 km/h 32,2 km/h 0,0 mm/h O 0,000 klux 680,0 W/qm 1,8 nein 6,08 µg/m³ 5,46 µg/m³ 12:40
12:458,9 °C 27 % 1021,3 hPa 0,0 mm 0,0 mm nein 16,1 km/h 32,2 km/h 0,0 mm/h O 0,000 klux 679,0 W/qm 1,8 nein 5,76 µg/m³ 5,17 µg/m³ 12:45
12:508,9 °C 27 % 1021,3 hPa 0,0 mm 0,0 mm nein 19,3 km/h 32,2 km/h 0,0 mm/h O 0,000 klux 678,0 W/qm 1,8 nein 8,59 µg/m³ 6,12 µg/m³ 12:50
12:558,9 °C 27 % 1021,3 hPa 0,0 mm 0,0 mm nein 14,5 km/h 29,0 km/h 0,0 mm/h O 0,000 klux 675,0 W/qm 1,8 nein 5,66 µg/m³ 5,07 µg/m³ 12:55
13:008,9 °C 27 % 1021,3 hPa 0,0 mm 0,4 mm nein 14,5 km/h 30,6 km/h 0,0 mm/h O 0,000 klux 672,0 W/qm 1,8 nein 9,46 µg/m³ 5,37 µg/m³ 13:00
13:058,9 °C 27 % 1021,2 hPa 0,0 mm 0,0 mm nein 17,7 km/h 32,2 km/h 0,0 mm/h O 0,000 klux 670,0 W/qm 1,8 nein 6,15 µg/m³ 4,88 µg/m³ 13:05
13:108,9 °C 28 % 1021,1 hPa 0,0 mm 0,0 mm nein 14,5 km/h 25,7 km/h 0,0 mm/h OSO 0,000 klux 668,0 W/qm 1,7 nein 6,04 µg/m³ 4,41 µg/m³ 13:10
13:158,9 °C 27 % 1021,1 hPa 0,0 mm 0,0 mm nein 14,5 km/h 29,0 km/h 0,0 mm/h O 0,000 klux 661,0 W/qm 1,7 nein 5,46 µg/m³ 4,39 µg/m³ 13:15
13:208,9 °C 26 % 1021,0 hPa 0,0 mm 0,0 mm nein 16,1 km/h 27,4 km/h 0,0 mm/h OSO 0,000 klux 657,0 W/qm 1,7 nein 7,07 µg/m³ 4,99 µg/m³ 13:20
13:258,9 °C 26 % 1021,0 hPa 0,0 mm 0,0 mm nein 17,7 km/h 35,4 km/h 0,0 mm/h O 0,000 klux 654,0 W/qm 1,7 nein 5,05 µg/m³ 4,66 µg/m³ 13:25
13:308,9 °C 27 % 1021,1 hPa 0,0 mm 0,0 mm nein 16,1 km/h 30,6 km/h 0,0 mm/h OSO 0,000 klux 648,0 W/qm 1,7 nein 5,46 µg/m³ 4,65 µg/m³ 13:30
13:358,9 °C 27 % 1021,1 hPa 0,0 mm 0,0 mm nein 12,9 km/h 24,1 km/h 0,0 mm/h O 0,000 klux 644,0 W/qm 1,6 nein 5,37 µg/m³ 4,52 µg/m³ 13:35
13:408,9 °C 27 % 1021,1 hPa 0,0 mm 0,0 mm nein 17,7 km/h 30,6 km/h 0,0 mm/h OSO 0,000 klux 639,0 W/qm 1,6 nein 8,26 µg/m³ 5,53 µg/m³ 13:40
13:458,9 °C 27 % 1021,0 hPa 0,0 mm 0,0 mm nein 17,7 km/h 33,8 km/h 0,0 mm/h OSO 0,000 klux 633,0 W/qm 1,6 nein 6,15 µg/m³ 5,46 µg/m³ 13:45
13:508,9 °C 27 % 1021,0 hPa 0,0 mm 0,0 mm nein 16,1 km/h 32,2 km/h 0,0 mm/h O 0,000 klux 627,0 W/qm 1,5 nein 6,05 µg/m³ 5,46 µg/m³ 13:50
13:558,9 °C 27 % 1021,0 hPa 0,0 mm 0,0 mm nein 17,7 km/h 32,2 km/h 0,0 mm/h O 0,000 klux 621,0 W/qm 1,5 nein 7,48 µg/m³ 5,01 µg/m³ 13:55
UhrzeitTemperaturFeuchteLuftdruckNiederschlagEvapotranspirationNiederschlag?WindWindböenRegenrateWindrichtungHelligkeitSolarstrahlungUV-IndexSonne?Feinstaub 10µmFeinstaub 2,5µmUhrzeit
14:008,9 °C 28 % 1020,9 hPa 0,0 mm 0,4 mm nein 12,9 km/h 24,1 km/h 0,0 mm/h O 0,000 klux 615,0 W/qm 1,5 nein - - 14:00
14:058,9 °C 27 % 1020,7 hPa 0,0 mm 0,0 mm nein 17,7 km/h 32,2 km/h 0,0 mm/h O 0,000 klux 609,0 W/qm 1,4 nein 6,05 µg/m³ 5,43 µg/m³ 14:05
14:109,4 °C 27 % 1020,7 hPa 0,0 mm 0,0 mm nein 14,5 km/h 27,4 km/h 0,0 mm/h O 0,000 klux 600,0 W/qm 1,4 nein 6,47 µg/m³ 5,40 µg/m³ 14:10
14:159,4 °C 27 % 1020,7 hPa 0,0 mm 0,0 mm nein 16,1 km/h 29,0 km/h 0,0 mm/h O 0,000 klux 592,0 W/qm 1,4 nein 5,92 µg/m³ 4,49 µg/m³ 14:15
14:209,4 °C 27 % 1020,6 hPa 0,0 mm 0,0 mm nein 16,1 km/h 27,4 km/h 0,0 mm/h OSO 0,000 klux 583,0 W/qm 1,3 nein 7,29 µg/m³ 4,71 µg/m³ 14:20
14:259,4 °C 27 % 1020,5 hPa 0,0 mm 0,0 mm nein 16,1 km/h 29,0 km/h 0,0 mm/h OSO 0,000 klux 574,0 W/qm 1,3 nein 5,34 µg/m³ 4,85 µg/m³ 14:25
14:309,4 °C 27 % 1020,6 hPa 0,0 mm 0,0 mm nein 12,9 km/h 29,0 km/h 0,0 mm/h OSO 0,000 klux 565,0 W/qm 1,3 nein 5,17 µg/m³ 4,68 µg/m³ 14:30
14:359,4 °C 27 % 1020,5 hPa 0,0 mm 0,0 mm nein 14,5 km/h 25,7 km/h 0,0 mm/h OSO 0,000 klux 555,0 W/qm 1,2 nein 6,61 µg/m³ 4,20 µg/m³ 14:35
14:409,4 °C 27 % 1020,6 hPa 0,0 mm 0,0 mm nein 12,9 km/h 25,7 km/h 0,0 mm/h OSO 0,000 klux 545,0 W/qm 1,2 nein 6,47 µg/m³ 4,81 µg/m³ 14:40
14:459,4 °C 27 % 1020,6 hPa 0,0 mm 0,0 mm nein 16,1 km/h 29,0 km/h 0,0 mm/h O 0,000 klux 534,0 W/qm 1,1 nein 5,59 µg/m³ 5,10 µg/m³ 14:45
14:5010,0 °C 27 % 1020,5 hPa 0,0 mm 0,0 mm nein 11,3 km/h 22,5 km/h 0,0 mm/h OSO 0,000 klux 523,0 W/qm 1,1 nein 6,21 µg/m³ 5,73 µg/m³ 14:50
14:5510,0 °C 27 % 1020,4 hPa 0,0 mm 0,0 mm nein 12,9 km/h 30,6 km/h 0,0 mm/h O 0,000 klux 511,0 W/qm 1,1 nein 12,00 µg/m³ 5,37 µg/m³ 14:55
15:0010,0 °C 26 % 1020,2 hPa 0,0 mm 0,4 mm nein 11,3 km/h 29,0 km/h 0,0 mm/h O 0,000 klux 500,0 W/qm 1,0 nein 5,60 µg/m³ 4,89 µg/m³ 15:00
15:0510,0 °C 27 % 1020,2 hPa 0,0 mm 0,0 mm nein 12,9 km/h 24,1 km/h 0,0 mm/h O 0,000 klux 489,0 W/qm 1,0 nein 6,76 µg/m³ 4,85 µg/m³ 15:05
15:1010,0 °C 26 % 1020,2 hPa 0,0 mm 0,0 mm nein 14,5 km/h 30,6 km/h 0,0 mm/h O 0,000 klux 477,0 W/qm 0,9 nein 7,07 µg/m³ 5,60 µg/m³ 15:10
15:1510,0 °C 27 % 1020,2 hPa 0,0 mm 0,0 mm nein 14,5 km/h 27,4 km/h 0,0 mm/h O 0,000 klux 465,0 W/qm 0,9 nein 6,08 µg/m³ 4,59 µg/m³ 15:15
15:2010,0 °C 27 % 1020,2 hPa 0,0 mm 0,0 mm nein 12,9 km/h 29,0 km/h 0,0 mm/h O 0,000 klux 450,0 W/qm 0,8 nein 5,66 µg/m³ 4,68 µg/m³ 15:20
15:2510,0 °C 27 % 1020,1 hPa 0,0 mm 0,0 mm nein 12,9 km/h 30,6 km/h 0,0 mm/h O 0,000 klux 438,0 W/qm 0,8 nein 8,29 µg/m³ 5,17 µg/m³ 15:25
15:3010,0 °C 27 % 1020,1 hPa 0,0 mm 0,0 mm nein 14,5 km/h 32,2 km/h 0,0 mm/h O 0,000 klux 423,0 W/qm 0,8 nein 5,56 µg/m³ 4,95 µg/m³ 15:30
15:3510,0 °C 27 % 1020,1 hPa 0,0 mm 0,0 mm nein 14,5 km/h 27,4 km/h 0,0 mm/h O 0,000 klux 410,0 W/qm 0,7 nein 6,12 µg/m³ 5,17 µg/m³ 15:35
15:4010,0 °C 28 % 1020,1 hPa 0,0 mm 0,0 mm nein 12,9 km/h 29,0 km/h 0,0 mm/h OSO 0,000 klux 400,0 W/qm 0,7 nein 5,26 µg/m³ 4,77 µg/m³ 15:40
15:4510,0 °C 27 % 1020,1 hPa 0,0 mm 0,0 mm nein 12,9 km/h 24,1 km/h 0,0 mm/h O 0,000 klux 386,0 W/qm 0,6 nein 7,83 µg/m³ 5,95 µg/m³ 15:45
15:5010,0 °C 28 % 1020,2 hPa 0,0 mm 0,0 mm nein 11,3 km/h 25,7 km/h 0,0 mm/h O 0,000 klux 371,0 W/qm 0,6 nein 6,75 µg/m³ 4,70 µg/m³ 15:50
15:5510,0 °C 27 % 1020,1 hPa 0,0 mm 0,0 mm nein 11,3 km/h 25,7 km/h 0,0 mm/h OSO 0,000 klux 361,0 W/qm 0,5 nein 4,81 µg/m³ 4,32 µg/m³ 15:55
UhrzeitTemperaturFeuchteLuftdruckNiederschlagEvapotranspirationNiederschlag?WindWindböenRegenrateWindrichtungHelligkeitSolarstrahlungUV-IndexSonne?Feinstaub 10µmFeinstaub 2,5µmUhrzeit
16:0010,0 °C 27 % 1020,0 hPa 0,0 mm 0,3 mm nein 12,9 km/h 22,5 km/h 0,0 mm/h OSO 0,000 klux 344,0 W/qm 0,5 nein 5,37 µg/m³ 4,85 µg/m³ 16:00
16:0510,0 °C 28 % 1020,0 hPa 0,0 mm 0,0 mm nein 11,3 km/h 25,7 km/h 0,0 mm/h ONO 0,000 klux 330,0 W/qm 0,3 nein 7,98 µg/m³ 6,01 µg/m³ 16:05
16:1010,0 °C 28 % 1019,9 hPa 0,0 mm 0,0 mm nein 11,3 km/h 27,4 km/h 0,0 mm/h O 0,000 klux 316,0 W/qm 0,0 nein 5,91 µg/m³ 5,33 µg/m³ 16:10
16:1510,0 °C 28 % 1019,9 hPa 0,0 mm 0,0 mm nein 14,5 km/h 25,7 km/h 0,0 mm/h OSO 0,000 klux 302,0 W/qm 0,0 nein 8,37 µg/m³ 5,23 µg/m³ 16:15
16:2010,0 °C 28 % 1019,9 hPa 0,0 mm 0,0 mm nein 16,1 km/h 24,1 km/h 0,0 mm/h O 0,000 klux 284,0 W/qm 0,0 nein 7,86 µg/m³ 5,35 µg/m³ 16:20
16:2510,0 °C 28 % 1019,8 hPa 0,0 mm 0,0 mm nein 14,5 km/h 27,4 km/h 0,0 mm/h O 0,000 klux 272,0 W/qm 0,0 nein 5,84 µg/m³ 5,26 µg/m³ 16:25
16:3010,0 °C 28 % 1019,9 hPa 0,0 mm 0,0 mm nein 11,3 km/h 25,7 km/h 0,0 mm/h O 0,000 klux 255,0 W/qm 0,0 nein 6,81 µg/m³ 5,33 µg/m³ 16:30
16:359,4 °C 28 % 1020,0 hPa 0,0 mm 0,0 mm nein 16,1 km/h 25,7 km/h 0,0 mm/h O 0,000 klux 235,0 W/qm 0,0 nein 7,50 µg/m³ 5,58 µg/m³ 16:35
16:409,4 °C 28 % 1020,0 hPa 0,0 mm 0,0 mm nein 14,5 km/h 25,7 km/h 0,0 mm/h O 0,000 klux 219,0 W/qm 0,0 nein 6,43 µg/m³ 5,35 µg/m³ 16:40
16:459,4 °C 29 % 1020,0 hPa 0,0 mm 0,0 mm nein 11,3 km/h 22,5 km/h 0,0 mm/h O 0,000 klux 199,0 W/qm 0,0 nein 6,22 µg/m³ 5,34 µg/m³ 16:45
16:509,4 °C 29 % 1019,9 hPa 0,0 mm 0,0 mm nein 12,9 km/h 24,1 km/h 0,0 mm/h O 0,000 klux 182,0 W/qm 0,0 nein 7,60 µg/m³ 4,98 µg/m³ 16:50
16:559,4 °C 29 % 1019,9 hPa 0,0 mm 0,0 mm nein 11,3 km/h 20,9 km/h 0,0 mm/h O 0,000 klux 164,0 W/qm 0,0 nein 6,90 µg/m³ 5,73 µg/m³ 16:55
17:009,4 °C 29 % 1019,9 hPa 0,0 mm 0,2 mm nein 12,9 km/h 25,7 km/h 0,0 mm/h O 0,000 klux 145,0 W/qm 0,0 nein 6,67 µg/m³ 6,12 µg/m³ 17:00
17:059,4 °C 29 % 1019,9 hPa 0,0 mm 0,0 mm nein 11,3 km/h 24,1 km/h 0,0 mm/h OSO 0,000 klux 127,0 W/qm 0,0 nein 7,67 µg/m³ 5,57 µg/m³ 17:05
17:109,4 °C 30 % 1019,9 hPa 0,0 mm 0,0 mm nein 9,7 km/h 19,3 km/h 0,0 mm/h O 0,000 klux 112,0 W/qm 0,0 nein 6,33 µg/m³ 5,55 µg/m³ 17:10
17:159,4 °C 30 % 1019,9 hPa 0,0 mm 0,0 mm nein 6,4 km/h 12,9 km/h 0,0 mm/h O 0,000 klux 90,0 W/qm 0,0 nein 8,43 µg/m³ 6,46 µg/m³ 17:15
17:209,4 °C 32 % 1019,9 hPa 0,0 mm 0,0 mm nein 12,9 km/h 24,1 km/h 0,0 mm/h ONO 0,000 klux 77,0 W/qm 0,0 nein 8,10 µg/m³ 7,32 µg/m³ 17:20
17:259,4 °C 34 % 1020,0 hPa 0,0 mm 0,0 mm nein 8,0 km/h 17,7 km/h 0,0 mm/h ONO 0,000 klux 69,0 W/qm 0,0 nein 9,32 µg/m³ 6,61 µg/m³ 17:25
17:308,9 °C 34 % 1020,1 hPa 0,0 mm 0,0 mm nein 9,7 km/h 20,9 km/h 0,0 mm/h O 0,000 klux 53,0 W/qm 0,0 nein 8,53 µg/m³ 6,83 µg/m³ 17:30
17:358,9 °C 34 % 1020,2 hPa 0,0 mm 0,0 mm nein 11,3 km/h 20,9 km/h 0,0 mm/h O 0,000 klux 40,0 W/qm 0,0 nein 8,05 µg/m³ 7,12 µg/m³ 17:35
17:408,9 °C 35 % 1020,2 hPa 0,0 mm 0,0 mm nein 11,3 km/h 24,1 km/h 0,0 mm/h ONO 0,000 klux 34,0 W/qm 0,0 nein 8,53 µg/m³ 7,57 µg/m³ 17:40
17:458,9 °C 35 % 1020,2 hPa 0,0 mm 0,0 mm nein 11,3 km/h 22,5 km/h 0,0 mm/h O 0,000 klux 25,0 W/qm 0,0 nein 9,67 µg/m³ 6,71 µg/m³ 17:45
17:508,3 °C 35 % 1020,4 hPa 0,0 mm 0,0 mm nein 11,3 km/h 22,5 km/h 0,0 mm/h O 0,000 klux 18,0 W/qm 0,0 nein 7,54 µg/m³ 6,78 µg/m³ 17:50
17:558,3 °C 35 % 1020,3 hPa 0,0 mm 0,0 mm nein 12,9 km/h 27,4 km/h 0,0 mm/h O 0,000 klux 12,0 W/qm 0,0 nein 8,40 µg/m³ 6,33 µg/m³ 17:55
UhrzeitTemperaturFeuchteLuftdruckNiederschlagEvapotranspirationNiederschlag?WindWindböenRegenrateWindrichtungHelligkeitSolarstrahlungUV-IndexSonne?Feinstaub 10µmFeinstaub 2,5µmUhrzeit
18:008,3 °C 36 % 1020,4 hPa 0,0 mm 0,1 mm nein 6,4 km/h 16,1 km/h 0,0 mm/h O 0,000 klux 10,0 W/qm 0,0 nein 7,83 µg/m³ 6,06 µg/m³ 18:00
18:057,8 °C 36 % 1020,6 hPa 0,0 mm 0,0 mm nein 8,0 km/h 16,1 km/h 0,0 mm/h OSO 0,000 klux 7,0 W/qm 0,0 nein 12,59 µg/m³ 7,14 µg/m³ 18:05
18:107,8 °C 37 % 1020,6 hPa 0,0 mm 0,0 mm nein 8,0 km/h 20,9 km/h 0,0 mm/h ONO 0,000 klux 5,0 W/qm 0,0 nein 8,28 µg/m³ 6,61 µg/m³ 18:10
18:157,8 °C 37 % 1020,7 hPa 0,0 mm 0,0 mm nein 11,3 km/h 20,9 km/h 0,0 mm/h O 0,000 klux 1,0 W/qm 0,0 nein 7,78 µg/m³ 6,64 µg/m³ 18:15
18:207,2 °C 37 % 1020,8 hPa 0,0 mm 0,0 mm nein 11,3 km/h 22,5 km/h 0,0 mm/h O 0,000 klux 0,0 W/qm 0,0 nein 12,24 µg/m³ 7,68 µg/m³ 18:20
18:257,2 °C 37 % 1020,9 hPa 0,0 mm 0,0 mm nein 8,0 km/h 17,7 km/h 0,0 mm/h O 0,000 klux 0,0 W/qm 0,0 nein 7,14 µg/m³ 5,53 µg/m³ 18:25
18:307,2 °C 37 % 1020,8 hPa 0,0 mm 0,0 mm nein 8,0 km/h 19,3 km/h 0,0 mm/h O 0,000 klux 0,0 W/qm 0,0 nein 9,84 µg/m³ 6,23 µg/m³ 18:30
18:357,2 °C 37 % 1020,9 hPa 0,0 mm 0,0 mm nein 9,7 km/h 17,7 km/h 0,0 mm/h O 0,000 klux 0,0 W/qm 0,0 nein 8,92 µg/m³ 6,90 µg/m³ 18:35
18:406,7 °C 37 % 1021,0 hPa 0,0 mm 0,0 mm nein 11,3 km/h 24,1 km/h 0,0 mm/h ONO 0,000 klux 0,0 W/qm 0,0 nein 9,99 µg/m³ 6,64 µg/m³ 18:40
18:456,7 °C 38 % 1021,0 hPa 0,0 mm 0,0 mm nein 8,0 km/h 14,5 km/h 0,0 mm/h O 0,000 klux 0,0 W/qm 0,0 nein 10,02 µg/m³ 6,90 µg/m³ 18:45
18:506,7 °C 38 % 1021,1 hPa 0,0 mm 0,0 mm nein 11,3 km/h 27,4 km/h 0,0 mm/h O 0,000 klux 0,0 W/qm 0,0 nein 10,11 µg/m³ 6,24 µg/m³ 18:50
18:556,7 °C 38 % 1021,2 hPa 0,0 mm 0,0 mm nein 9,7 km/h 17,7 km/h 0,0 mm/h O 0,000 klux 0,0 W/qm 0,0 nein 10,21 µg/m³ 6,02 µg/m³ 18:55
19:006,7 °C 37 % 1021,2 hPa 0,0 mm 0,1 mm nein 9,7 km/h 17,7 km/h 0,0 mm/h O 0,000 klux 0,0 W/qm 0,0 nein 6,54 µg/m³ 5,47 µg/m³ 19:00
19:056,1 °C 38 % 1021,3 hPa 0,0 mm 0,0 mm nein 8,0 km/h 16,1 km/h 0,0 mm/h O 0,000 klux 0,0 W/qm 0,0 nein 7,40 µg/m³ 5,29 µg/m³ 19:05
19:106,1 °C 37 % 1021,4 hPa 0,0 mm 0,0 mm nein 9,7 km/h 20,9 km/h 0,0 mm/h O 0,000 klux 0,0 W/qm 0,0 nein 6,73 µg/m³ 6,07 µg/m³ 19:10
19:156,1 °C 37 % 1021,5 hPa 0,0 mm 0,0 mm nein 6,4 km/h 14,5 km/h 0,0 mm/h O 0,000 klux 0,0 W/qm 0,0 nein 8,22 µg/m³ 5,79 µg/m³ 19:15
19:206,1 °C 37 % 1021,5 hPa 0,0 mm 0,0 mm nein 6,4 km/h 17,7 km/h 0,0 mm/h ONO 0,000 klux 0,0 W/qm 0,0 nein 10,24 µg/m³ 7,11 µg/m³ 19:20
19:255,6 °C 37 % 1021,7 hPa 0,0 mm 0,0 mm nein 9,7 km/h 20,9 km/h 0,0 mm/h O 0,000 klux 0,0 W/qm 0,0 nein 7,46 µg/m³ 5,00 µg/m³ 19:25
19:305,6 °C 37 % 1021,7 hPa 0,0 mm 0,0 mm nein 9,7 km/h 20,9 km/h 0,0 mm/h OSO 0,000 klux 0,0 W/qm 0,0 nein 7,24 µg/m³ 6,07 µg/m³ 19:30
19:355,6 °C 37 % 1021,7 hPa 0,0 mm 0,0 mm nein 9,7 km/h 17,7 km/h 0,0 mm/h ONO 0,000 klux 0,0 W/qm 0,0 nein 10,75 µg/m³ 5,98 µg/m³ 19:35
19:405,6 °C 37 % 1021,6 hPa 0,0 mm 0,0 mm nein 9,7 km/h 17,7 km/h 0,0 mm/h O 0,000 klux 0,0 W/qm 0,0 nein 5,47 µg/m³ 5,00 µg/m³ 19:40
19:455,6 °C 37 % 1021,5 hPa 0,0 mm 0,0 mm nein 8,0 km/h 12,9 km/h 0,0 mm/h O 0,000 klux 0,0 W/qm 0,0 nein 6,42 µg/m³ 5,57 µg/m³ 19:45
19:505,0 °C 37 % 1021,8 hPa 0,0 mm 0,0 mm nein 6,4 km/h 16,1 km/h 0,0 mm/h O 0,000 klux 0,0 W/qm 0,0 nein 7,33 µg/m³ 5,66 µg/m³ 19:50
19:555,0 °C 37 % 1021,8 hPa 0,0 mm 0,0 mm nein 9,7 km/h 17,7 km/h 0,0 mm/h O 0,000 klux 0,0 W/qm 0,0 nein 7,40 µg/m³ 5,41 µg/m³ 19:55
UhrzeitTemperaturFeuchteLuftdruckNiederschlagEvapotranspirationNiederschlag?WindWindböenRegenrateWindrichtungHelligkeitSolarstrahlungUV-IndexSonne?Feinstaub 10µmFeinstaub 2,5µmUhrzeit
20:005,0 °C 37 % 1021,9 hPa 0,0 mm 0,1 mm nein 8,0 km/h 17,7 km/h 0,0 mm/h O 0,000 klux 0,0 W/qm 0,0 nein 4,84 µg/m³ 4,43 µg/m³ 20:00
20:055,0 °C 37 % 1022,0 hPa 0,0 mm 0,0 mm nein 8,0 km/h 19,3 km/h 0,0 mm/h OSO 0,000 klux 0,0 W/qm 0,0 nein 7,30 µg/m³ 4,87 µg/m³ 20:05
20:104,4 °C 37 % 1022,1 hPa 0,0 mm 0,0 mm nein 9,7 km/h 20,9 km/h 0,0 mm/h O 0,000 klux 0,0 W/qm 0,0 nein 6,76 µg/m³ 5,57 µg/m³ 20:10
20:154,4 °C 37 % 1022,2 hPa 0,0 mm 0,0 mm nein 6,4 km/h 16,1 km/h 0,0 mm/h OSO 0,000 klux 0,0 W/qm 0,0 nein 6,99 µg/m³ 5,50 µg/m³ 20:15
20:204,4 °C 38 % 1022,2 hPa 0,0 mm 0,0 mm nein 4,8 km/h 12,9 km/h 0,0 mm/h OSO 0,000 klux 0,0 W/qm 0,0 nein 5,41 µg/m³ 4,82 µg/m³ 20:20
20:254,4 °C 38 % 1022,2 hPa 0,0 mm 0,0 mm nein 6,4 km/h 14,5 km/h 0,0 mm/h O 0,000 klux 0,0 W/qm 0,0 nein 5,01 µg/m³ 4,63 µg/m³ 20:25
20:304,4 °C 38 % 1022,3 hPa 0,0 mm 0,0 mm nein 4,8 km/h 11,3 km/h 0,0 mm/h OSO 0,000 klux 0,0 W/qm 0,0 nein 6,21 µg/m³ 4,85 µg/m³ 20:30
20:353,9 °C 38 % 1022,4 hPa 0,0 mm 0,0 mm nein 4,8 km/h 11,3 km/h 0,0 mm/h O 0,000 klux 0,0 W/qm 0,0 nein 7,15 µg/m³ 5,20 µg/m³ 20:35
20:403,9 °C 38 % 1022,4 hPa 0,0 mm 0,0 mm nein 4,8 km/h 14,5 km/h 0,0 mm/h OSO 0,000 klux 0,0 W/qm 0,0 nein 7,12 µg/m³ 4,91 µg/m³ 20:40
20:453,9 °C 39 % 1022,5 hPa 0,0 mm 0,0 mm nein 4,8 km/h 9,7 km/h 0,0 mm/h O 0,000 klux 0,0 W/qm 0,0 nein 6,90 µg/m³ 5,08 µg/m³ 20:45
20:503,9 °C 39 % 1022,6 hPa 0,0 mm 0,0 mm nein 4,8 km/h 14,5 km/h 0,0 mm/h O 0,000 klux 0,0 W/qm 0,0 nein 8,12 µg/m³ 5,93 µg/m³ 20:50
20:553,3 °C 39 % 1022,8 hPa 0,0 mm 0,0 mm nein 4,8 km/h 9,7 km/h 0,0 mm/h OSO 0,000 klux 0,0 W/qm 0,0 nein 10,83 µg/m³ 5,93 µg/m³ 20:55
21:003,3 °C 39 % 1022,8 hPa 0,0 mm 0,1 mm nein 4,8 km/h 11,3 km/h 0,0 mm/h OSO 0,000 klux 0,0 W/qm 0,0 nein 11,11 µg/m³ 5,96 µg/m³ 21:00
21:053,3 °C 40 % 1022,8 hPa 0,0 mm 0,0 mm nein 3,2 km/h 6,4 km/h 0,0 mm/h OSO 0,000 klux 0,0 W/qm 0,0 nein 10,00 µg/m³ 5,34 µg/m³ 21:05
21:103,3 °C 40 % 1022,8 hPa 0,0 mm 0,0 mm nein 3,2 km/h 12,9 km/h 0,0 mm/h OSO 0,000 klux 0,0 W/qm 0,0 nein 9,66 µg/m³ 5,02 µg/m³ 21:10
21:153,3 °C 40 % 1022,8 hPa 0,0 mm 0,0 mm nein 4,8 km/h 8,0 km/h 0,0 mm/h OSO 0,000 klux 0,0 W/qm 0,0 nein 10,38 µg/m³ 5,81 µg/m³ 21:15
21:202,8 °C 41 % 1022,9 hPa 0,0 mm 0,0 mm nein 3,2 km/h 6,4 km/h 0,0 mm/h OSO 0,000 klux 0,0 W/qm 0,0 nein 10,97 µg/m³ 5,97 µg/m³ 21:20
21:252,8 °C 41 % 1022,8 hPa 0,0 mm 0,0 mm nein 3,2 km/h 8,0 km/h 0,0 mm/h O 0,000 klux 0,0 W/qm 0,0 nein 9,08 µg/m³ 6,10 µg/m³ 21:25
21:302,8 °C 41 % 1022,8 hPa 0,0 mm 0,0 mm nein 4,8 km/h 11,3 km/h 0,0 mm/h O 0,000 klux 0,0 W/qm 0,0 nein 7,64 µg/m³ 5,81 µg/m³ 21:30
21:352,8 °C 42 % 1022,8 hPa 0,0 mm 0,0 mm nein 3,2 km/h 6,4 km/h 0,0 mm/h OSO 0,000 klux 0,0 W/qm 0,0 nein 10,85 µg/m³ 5,98 µg/m³ 21:35
21:402,2 °C 42 % 1022,8 hPa 0,0 mm 0,0 mm nein 6,4 km/h 11,3 km/h 0,0 mm/h OSO 0,000 klux 0,0 W/qm 0,0 nein 12,92 µg/m³ 7,34 µg/m³ 21:40
21:452,2 °C 42 % 1022,8 hPa 0,0 mm 0,0 mm nein 6,4 km/h 14,5 km/h 0,0 mm/h O 0,000 klux 0,0 W/qm 0,0 nein 7,56 µg/m³ 5,39 µg/m³ 21:45
21:502,2 °C 42 % 1022,8 hPa 0,0 mm 0,0 mm nein 4,8 km/h 8,0 km/h 0,0 mm/h O 0,000 klux 0,0 W/qm 0,0 nein 10,87 µg/m³ 6,57 µg/m³ 21:50
21:552,2 °C 42 % 1022,9 hPa 0,0 mm 0,0 mm nein 4,8 km/h 9,7 km/h 0,0 mm/h O 0,000 klux 0,0 W/qm 0,0 nein 7,57 µg/m³ 5,16 µg/m³ 21:55
UhrzeitTemperaturFeuchteLuftdruckNiederschlagEvapotranspirationNiederschlag?WindWindböenRegenrateWindrichtungHelligkeitSolarstrahlungUV-IndexSonne?Feinstaub 10µmFeinstaub 2,5µmUhrzeit
22:002,2 °C 43 % 1022,9 hPa 0,0 mm 0,1 mm nein 4,8 km/h 12,9 km/h 0,0 mm/h OSO 0,000 klux 0,0 W/qm 0,0 nein 6,29 µg/m³ 5,27 µg/m³ 22:00
22:052,2 °C 42 % 1022,9 hPa 0,0 mm 0,0 mm nein 4,8 km/h 9,7 km/h 0,0 mm/h OSO 0,000 klux 0,0 W/qm 0,0 nein 9,78 µg/m³ 7,95 µg/m³ 22:05
22:101,7 °C 43 % 1023,1 hPa 0,0 mm 0,0 mm nein 3,2 km/h 6,4 km/h 0,0 mm/h OSO 0,000 klux 0,0 W/qm 0,0 nein 8,88 µg/m³ 6,60 µg/m³ 22:10
22:151,7 °C 43 % 1023,1 hPa 0,0 mm 0,0 mm nein 4,8 km/h 9,7 km/h 0,0 mm/h SO 0,000 klux 0,0 W/qm 0,0 nein 7,06 µg/m³ 5,64 µg/m³ 22:15
22:201,7 °C 44 % 1023,1 hPa 0,0 mm 0,0 mm nein 3,2 km/h 6,4 km/h 0,0 mm/h SO 0,000 klux 0,0 W/qm 0,0 nein 7,73 µg/m³ 6,40 µg/m³ 22:20
22:251,7 °C 44 % 1023,1 hPa 0,0 mm 0,0 mm nein 1,6 km/h 4,8 km/h 0,0 mm/h SO 0,000 klux 0,0 W/qm 0,0 nein 8,70 µg/m³ 6,21 µg/m³ 22:25
22:301,7 °C 45 % 1023,1 hPa 0,0 mm 0,0 mm nein 1,6 km/h 3,2 km/h 0,0 mm/h SO 0,000 klux 0,0 W/qm 0,0 nein 7,28 µg/m³ 5,77 µg/m³ 22:30
22:351,1 °C 46 % 1023,2 hPa 0,0 mm 0,0 mm nein 1,6 km/h 4,8 km/h 0,0 mm/h SO 0,000 klux 0,0 W/qm 0,0 nein 8,03 µg/m³ 5,67 µg/m³ 22:35
22:401,1 °C 46 % 1023,2 hPa 0,0 mm 0,0 mm nein 1,6 km/h 4,8 km/h 0,0 mm/h SO 0,000 klux 0,0 W/qm 0,0 nein 12,52 µg/m³ 9,84 µg/m³ 22:40
22:450,6 °C 47 % 1023,3 hPa 0,0 mm 0,0 mm nein 3,2 km/h 6,4 km/h 0,0 mm/h OSO 0,000 klux 0,0 W/qm 0,0 nein 13,13 µg/m³ 9,28 µg/m³ 22:45
22:500,6 °C 46 % 1023,3 hPa 0,0 mm 0,0 mm nein 3,2 km/h 6,4 km/h 0,0 mm/h OSO 0,000 klux 0,0 W/qm 0,0 nein 19,05 µg/m³ 13,87 µg/m³ 22:50
22:550,6 °C 47 % 1023,3 hPa 0,0 mm 0,0 mm nein 3,2 km/h 6,4 km/h 0,0 mm/h OSO 0,000 klux 0,0 W/qm 0,0 nein 18,23 µg/m³ 14,99 µg/m³ 22:55
23:000,6 °C 47 % 1023,3 hPa 0,0 mm 0,0 mm nein 3,2 km/h 6,4 km/h 0,0 mm/h OSO 0,000 klux 0,0 W/qm 0,0 nein 18,88 µg/m³ 17,05 µg/m³ 23:00
23:050,0 °C 47 % 1023,4 hPa 0,0 mm 0,0 mm nein 3,2 km/h 8,0 km/h 0,0 mm/h OSO 0,000 klux 0,0 W/qm 0,0 nein 15,19 µg/m³ 13,38 µg/m³ 23:05
23:100,0 °C 47 % 1023,4 hPa 0,0 mm 0,0 mm nein 3,2 km/h 8,0 km/h 0,0 mm/h OSO 0,000 klux 0,0 W/qm 0,0 nein 10,85 µg/m³ 9,72 µg/m³ 23:10
23:150,0 °C 47 % 1023,4 hPa 0,0 mm 0,0 mm nein 3,2 km/h 6,4 km/h 0,0 mm/h OSO 0,000 klux 0,0 W/qm 0,0 nein 7,92 µg/m³ 6,73 µg/m³ 23:15
23:200,0 °C 48 % 1023,3 hPa 0,0 mm 0,0 mm nein 4,8 km/h 8,0 km/h 0,0 mm/h O 0,000 klux 0,0 W/qm 0,0 nein 7,07 µg/m³ 5,15 µg/m³ 23:20
23:250,0 °C 47 % 1023,3 hPa 0,0 mm 0,0 mm nein 3,2 km/h 6,4 km/h 0,0 mm/h OSO 0,000 klux 0,0 W/qm 0,0 nein 8,59 µg/m³ 5,50 µg/m³ 23:25
23:30-0,6 °C 47 % 1023,6 hPa 0,0 mm 0,0 mm nein 4,8 km/h 9,7 km/h 0,0 mm/h SO 0,000 klux 0,0 W/qm 0,0 nein 15,44 µg/m³ 10,82 µg/m³ 23:30
23:35-0,6 °C 48 % 1023,7 hPa 0,0 mm 0,0 mm nein 4,8 km/h 8,0 km/h 0,0 mm/h OSO 0,000 klux 0,0 W/qm 0,0 nein 10,56 µg/m³ 6,62 µg/m³ 23:35
23:40-0,6 °C 48 % 1023,7 hPa 0,0 mm 0,0 mm nein 3,2 km/h 6,4 km/h 0,0 mm/h OSO 0,000 klux 0,0 W/qm 0,0 nein 9,18 µg/m³ 6,39 µg/m³ 23:40
23:45-0,6 °C 48 % 1023,7 hPa 0,0 mm 0,0 mm nein 3,2 km/h 4,8 km/h 0,0 mm/h OSO 0,000 klux 0,0 W/qm 0,0 nein 7,79 µg/m³ 4,50 µg/m³ 23:45
23:50-0,6 °C 48 % 1023,7 hPa 0,0 mm 0,0 mm nein 3,2 km/h 8,0 km/h 0,0 mm/h O 0,000 klux 0,0 W/qm 0,0 nein 12,44 µg/m³ 5,27 µg/m³ 23:50
23:55-0,6 °C 48 % 1023,8 hPa 0,0 mm 0,0 mm nein 4,8 km/h 11,3 km/h 0,0 mm/h O 0,000 klux 0,0 W/qm 0,0 nein 8,04 µg/m³ 4,95 µg/m³ 23:55
Gesamt: 3,8 °C 47 % 1023,1 hPa 0,0 mm 3,4 mm nein 8,9 km/h 18,3 km/h 0,0 mm/h 0 0,000 klux 192,1 W/qm 0,4 nein 10,75 µg/m³ 7,54 µg/m³

Insgesamt 288 Zeilen mal 16 Spalten = 4608 Werte werden angezeigt.

www.wetter-rosstal.de   •   www.wetter-franken.de   •   www.lightningmaps.org   •   Start   •   Kontakt / Datenschutz   •   PC-Kümmerer